Time;durP1;ratioP1;P1;durP2;ratioP2;P2;SDS_P1;SDS_P2;PMS_P1;PMS_P2;Temp;Humidity;BMP_temperature;BMP_pressure;BME280_temperature;BME280_humidity;BME280_pressure;Samples;Min_cycle;Max_cycle;Signal;HPM_P1;HPM_P2
2023/03/13 00:01:24;;;;;;;11.80;6.90;;;;;;;3.19;87.87;99829.84;105873;1255;69282;-60
2023/03/13 00:03:54;;;;;;;13.10;6.70;;;;;;;3.25;88.25;99833.36;105526;1254;73943;-60
2023/03/13 00:06:25;;;;;;;11.30;6.50;;;;;;;3.30;88.31;99832.75;105520;1254;83171;-60
2023/03/13 00:08:54;;;;;;;11.60;6.80;;;;;;;3.32;88.50;99834.95;105775;1254;72834;-60
2023/03/13 00:11:22;;;;;;;11.70;7.30;;;;;;;3.35;88.70;99829.22;105519;1256;69273;-60
2023/03/13 00:13:59;;;;;;;10.40;6.70;;;;;;;3.39;88.49;99825.86;105517;1255;69162;-60
2023/03/13 00:16:28;;;;;;;11.20;6.40;;;;;;;3.44;88.39;99819.73;105658;1256;74011;-60
2023/03/13 00:18:57;;;;;;;11.20;6.70;;;;;;;3.48;88.47;99820.89;105552;1254;82440;-60
2023/03/13 00:21:28;;;;;;;10.60;6.60;;;;;;;3.52;88.88;99820.64;105497;1254;73854;-61
2023/03/13 00:23:58;;;;;;;10.70;6.20;;;;;;;3.56;88.77;99823.84;105511;1257;69211;-61
2023/03/13 00:26:27;;;;;;;10.80;6.30;;;;;;;3.60;88.60;99826.89;105559;1257;69119;-60
2023/03/13 00:28:55;;;;;;;10.70;6.10;;;;;;;3.64;88.73;99826.31;105773;1254;74967;-61
2023/03/13 00:31:26;;;;;;;10.10;5.90;;;;;;;3.66;88.52;99828.68;105549;1254;82299;-60
2023/03/13 00:34:00;;;;;;;12.40;6.40;;;;;;;3.69;88.70;99828.28;105528;1256;73883;-60
2023/03/13 00:36:31;;;;;;;11.10;6.80;;;;;;;3.72;89.05;99830.99;105670;1254;69161;-60
2023/03/13 00:39:02;;;;;;;12.80;7.30;;;;;;;3.74;89.07;99831.14;105558;1254;69135;-60
2023/03/13 00:41:32;;;;;;;13.50;7.30;;;;;;;3.75;89.15;99833.70;105321;1257;76239;-60
2023/03/13 00:44:01;;;;;;;9.80;6.30;;;;;;;3.78;89.16;99830.19;105543;1256;83339;-60
2023/03/13 00:46:30;;;;;;;;;;;;;;;3.81;89.31;99829.27;105513;1256;73776;-60
2023/03/13 00:48:59;;;;;;;12.80;7.40;;;;;;;3.82;89.22;99833.58;105632;1257;69220;-60
2023/03/13 00:51:28;;;;;;;11.50;6.40;;;;;;;3.83;89.42;99829.60;105524;1252;69295;-60
2023/03/13 00:54:00;;;;;;;16.60;7.50;;;;;;;3.85;89.52;99830.41;105757;1254;74135;-60
2023/03/13 00:56:29;;;;;;;10.60;6.50;;;;;;;3.87;89.50;99833.14;105572;1257;83189;-60
2023/03/13 00:58:59;;;;;;;12.60;6.80;;;;;;;3.91;89.71;99832.20;105554;1254;72724;-60
2023/03/13 01:01:31;;;;;;;10.70;6.60;;;;;;;3.95;89.72;99833.34;105537;1254;69205;-60
2023/03/13 01:04:03;;;;;;;12.60;7.00;;;;;;;3.98;89.94;99828.42;105816;1254;69195;-60
2023/03/13 01:06:33;;;;;;;13.00;7.00;;;;;;;4.03;90.08;99826.44;105452;1254;74553;-60
2023/03/13 01:09:03;;;;;;;13.50;6.50;;;;;;;4.07;89.99;99821.01;105536;1254;82510;-60
2023/03/13 01:11:34;;;;;;;11.20;6.60;;;;;;;4.08;90.23;99822.36;105741;1254;73862;-60
2023/03/13 01:14:05;;;;;;;13.00;7.00;;;;;;;4.10;90.27;99821.30;105522;1253;69278;-60
2023/03/13 01:16:35;;;;;;;11.60;7.00;;;;;;;4.11;90.36;99822.66;105584;1252;69070;-60
2023/03/13 01:19:06;;;;;;;12.70;6.80;;;;;;;4.11;90.20;99823.35;105845;1254;73776;-60
2023/03/13 01:21:35;;;;;;;10.30;7.20;;;;;;;4.14;90.22;99820.34;105552;1254;83161;-60
2023/03/13 01:24:04;;;;;;;11.30;7.00;;;;;;;4.15;90.22;99818.24;105476;1256;73992;-60
2023/03/13 01:26:32;;;;;;;10.10;6.00;;;;;;;4.17;90.36;99817.00;105542;1254;69170;-60
2023/03/13 01:29:00;;;;;;;13.10;6.00;;;;;;;4.21;90.39;99815.70;105717;1256;69160;-60
2023/03/13 01:31:31;;;;;;;16.30;6.00;;;;;;;4.26;90.63;99813.36;105487;1257;74917;-60
2023/03/13 01:34:02;;;;;;;10.90;6.00;;;;;;;4.31;90.75;99816.73;105391;1257;83488;-60
2023/03/13 01:36:32;;;;;;;8.70;5.30;;;;;;;4.37;90.77;99814.67;105767;1256;73785;-60
2023/03/13 01:39:00;;;;;;;11.90;5.60;;;;;;;4.42;90.97;99815.27;105580;1253;69107;-60
2023/03/13 01:41:30;;;;;;;8.80;5.20;;;;;;;4.48;91.28;99810.81;105588;1253;69002;-60
2023/03/13 01:43:58;;;;;;;8.80;4.70;;;;;;;4.54;91.43;99808.78;105918;1253;73455;-60
2023/03/13 01:46:32;;;;;;;8.30;5.10;;;;;;;4.62;91.66;99805.30;105877;1255;83203;-60
2023/03/13 01:49:22;;;;;;;11.60;5.10;;;;;;;4.70;91.86;99801.86;105475;1253;73883;-60
2023/03/13 01:52:10;;;;;;;10.70;5.00;;;;;;;4.74;91.95;99802.98;105786;1254;69173;-60
2023/03/13 01:55:03;;;;;;;8.90;4.80;;;;;;;4.79;92.01;99801.30;105732;1253;69066;-60
2023/03/13 01:57:35;;;;;;;8.50;4.30;;;;;;;4.89;92.01;99799.69;105415;1254;75531;-60
2023/03/13 02:00:12;;;;;;;7.30;4.20;;;;;;;4.97;92.10;99798.11;105790;1256;83302;-60
2023/03/13 02:02:44;;;;;;;7.50;3.80;;;;;;;5.04;92.12;99803.83;105406;1254;73582;-60
2023/03/13 02:05:14;;;;;;;8.70;4.40;;;;;;;5.12;92.12;99805.02;105547;1256;69331;-60
2023/03/13 02:07:52;;;;;;;7.90;4.10;;;;;;;5.18;92.03;99800.39;105777;1257;69042;-60
2023/03/13 02:10:21;;;;;;;7.20;3.80;;;;;;;5.24;92.21;99800.77;105656;1254;74528;-60
2023/03/13 02:12:50;;;;;;;7.90;3.30;;;;;;;5.29;92.31;99797.52;105585;1254;82929;-60
2023/03/13 02:15:20;;;;;;;7.70;3.50;;;;;;;5.36;92.32;99793.17;105700;1257;73856;-60
2023/03/13 02:17:49;;;;;;;7.20;3.40;;;;;;;5.43;92.34;99794.20;105703;1253;69092;-60
2023/03/13 02:20:22;;;;;;;10.10;3.60;;;;;;;5.49;92.31;99793.36;105571;1254;69071;-60
2023/03/13 02:23:15;;;;;;;7.60;3.60;;;;;;;5.54;92.43;99789.77;105519;1254;74595;-60
2023/03/13 02:25:48;;;;;;;8.30;3.70;;;;;;;5.59;92.44;99793.62;105553;1254;82395;-60
2023/03/13 02:28:23;;;;;;;7.00;3.80;;;;;;;5.63;92.39;99791.27;105693;1256;71824;-60
2023/03/13 02:30:54;;;;;;;7.80;3.20;;;;;;;5.66;92.63;99789.29;105544;1254;69084;-60
2023/03/13 02:33:27;;;;;;;10.50;3.50;;;;;;;5.71;92.44;99789.33;105558;1252;69093;-60
2023/03/13 02:35:56;;;;;;;9.50;3.50;;;;;;;5.74;92.37;99795.13;105520;1254;74636;-60
2023/03/13 02:38:26;;;;;;;7.00;3.10;;;;;;;5.77;92.26;99795.89;105548;1254;82765;-60
2023/03/13 02:40:55;;;;;;;8.90;3.20;;;;;;;5.82;92.41;99795.25;105503;1252;72843;-60
2023/03/13 02:43:33;;;;;;;9.80;3.70;;;;;;;5.87;92.33;99788.86;105793;1252;69175;-60
2023/03/13 02:46:09;;;;;;;9.40;2.70;;;;;;;5.91;92.42;99788.75;105511;1252;69168;-60
2023/03/13 02:48:45;;;;;;;9.80;2.90;;;;;;;5.96;92.40;99789.02;105917;1253;74521;-60
2023/03/13 02:51:32;;;;;;;;;;;;;;;6.00;92.58;99785.25;105588;1254;82634;-60
2023/03/13 02:54:05;;;;;;;6.90;2.80;;;;;;;6.01;92.55;99784.01;105554;1256;73823;-60
2023/03/13 02:56:35;;;;;;;6.90;3.20;;;;;;;6.02;92.58;99784.67;105472;1258;69119;-60
2023/03/13 02:59:04;;;;;;;8.30;2.80;;;;;;;6.05;92.53;99784.23;105564;1253;69048;-60
2023/03/13 03:01:33;;;;;;;9.50;3.00;;;;;;;6.10;92.34;99781.86;105711;1254;73971;-60
2023/03/13 03:04:01;;;;;;;7.10;3.40;;;;;;;6.12;92.06;99786.48;105478;1253;82584;-61
2023/03/13 03:06:31;;;;;;;7.70;2.70;;;;;;;6.17;92.25;99787.20;105584;1256;74027;-60
2023/03/13 03:09:03;;;;;;;7.00;2.90;;;;;;;6.21;92.23;99783.25;105578;1256;69170;-60
2023/03/13 03:11:34;;;;;;;6.90;3.10;;;;;;;6.23;92.14;99788.20;105712;1256;69201;-60
2023/03/13 03:14:06;;;;;;;5.30;2.60;;;;;;;6.29;92.27;99786.88;105490;1257;73094;-60
2023/03/13 03:16:39;;;;;;;8.40;3.00;;;;;;;6.30;92.25;99790.29;105565;1252;81572;-60
2023/03/13 03:19:09;;;;;;;8.70;3.10;;;;;;;6.31;92.37;99788.35;105629;1254;74100;-60
2023/03/13 03:21:38;;;;;;;9.50;2.90;;;;;;;6.33;92.18;99792.97;105544;1256;69201;-60
2023/03/13 03:24:07;;;;;;;8.10;2.90;;;;;;;6.39;92.15;99789.70;105781;1253;69183;-60
2023/03/13 03:26:36;;;;;;;11.90;3.00;;;;;;;6.43;92.01;99781.05;105558;1256;73845;-60
2023/03/13 03:29:09;;;;;;;8.60;2.90;;;;;;;6.46;91.99;99782.68;105381;1254;81835;-60
2023/03/13 03:31:39;;;;;;;6.80;2.70;;;;;;;6.50;91.94;99782.42;105741;1256;73133;-60
2023/03/13 03:34:07;;;;;;;9.10;2.60;;;;;;;6.53;91.89;99784.05;105597;1256;69099;-60
2023/03/13 03:36:35;;;;;;;6.30;2.60;;;;;;;6.55;91.77;99779.32;105511;1256;69141;-60
2023/03/13 03:39:04;;;;;;;7.60;2.70;;;;;;;6.54;91.87;99775.53;105541;1254;75047;-60
2023/03/13 03:41:32;;;;;;;8.80;2.80;;;;;;;6.54;91.88;99774.14;105536;1253;83656;-60
2023/03/13 03:44:01;;;;;;;10.20;2.60;;;;;;;6.49;91.58;99774.45;105539;1253;73611;-60
2023/03/13 03:46:38;;;;;;;9.10;3.00;;;;;;;6.44;91.43;99773.05;105512;1254;69204;-60
2023/03/13 03:49:06;;;;;;;6.30;2.60;;;;;;;6.42;91.21;99772.40;105510;1256;69120;-60
2023/03/13 03:51:35;;;;;;;8.50;2.70;;;;;;;6.40;91.40;99772.30;105354;1254;75118;-60
2023/03/13 03:54:03;;;;;;;5.00;2.40;;;;;;;6.39;91.56;99769.54;105504;1256;83378;-60
2023/03/13 03:56:32;;;;;;;7.30;2.70;;;;;;;6.38;91.33;99767.16;105489;1253;74413;-60
2023/03/13 03:59:01;;;;;;;6.80;2.60;;;;;;;6.35;91.48;99765.34;105478;1256;69196;-60
2023/03/13 04:01:37;;;;;;;6.70;2.70;;;;;;;6.30;91.65;99757.00;105348;1254;69176;-60
2023/03/13 04:04:06;;;;;;;7.50;2.70;;;;;;;6.25;91.47;99757.48;105562;1257;73942;-60
2023/03/13 04:06:35;;;;;;;8.30;4.00;;;;;;;6.22;91.77;99752.00;105929;1254;82574;-60
2023/03/13 04:09:05;;;;;;;13.30;4.00;;;;;;;6.20;91.70;99750.51;105493;1252;74479;-60
2023/03/13 04:11:35;;;;;;;7.40;2.70;;;;;;;6.20;91.71;99743.74;105384;1254;69119;-60
2023/03/13 04:14:04;;;;;;;6.10;2.70;;;;;;;6.19;91.80;99741.17;105375;1256;69189;-60
2023/03/13 04:16:32;;;;;;;7.00;2.80;;;;;;;6.19;91.69;99737.87;105559;1254;74571;-60
2023/03/13 04:19:01;;;;;;;8.40;2.70;;;;;;;6.19;91.65;99739.77;105613;1254;82571;-60
2023/03/13 04:21:31;;;;;;;9.50;3.30;;;;;;;6.19;91.89;99737.71;105547;1256;74198;-60
2023/03/13 04:24:10;;;;;;;6.50;2.90;;;;;;;6.17;91.98;99733.44;105485;1254;69215;-60
2023/03/13 04:26:40;;;;;;;10.80;4.40;;;;;;;6.15;91.93;99726.88;105581;1254;69081;-60
2023/03/13 04:29:09;;;;;;;7.20;3.80;;;;;;;6.14;92.00;99727.79;105914;1254;74760;-60
2023/03/13 04:32:01;;;;;;;10.00;3.50;;;;;;;6.10;92.16;99729.14;105427;1256;83388;-60
2023/03/13 04:34:55;;;;;;;9.70;3.40;;;;;;;6.08;92.06;99723.46;105251;1254;73952;-60
2023/03/13 04:37:42;;;;;;;7.60;3.30;;;;;;;6.06;92.32;99723.67;105539;1256;69691;-60
2023/03/13 04:40:29;;;;;;;8.80;3.40;;;;;;;6.08;92.25;99723.46;105496;1252;69190;-60
2023/03/13 04:43:08;;;;;;;7.80;3.00;;;;;;;6.10;92.18;99719.08;105535;1254;74653;-60
2023/03/13 04:45:55;;;;;;;10.00;3.40;;;;;;;6.09;92.04;99718.21;105541;1254;83320;-60
2023/03/13 04:48:37;;;;;;;10.40;3.20;;;;;;;6.10;91.91;99719.09;105467;1252;73733;-60
2023/03/13 04:51:17;;;;;;;10.60;4.40;;;;;;;6.07;91.89;99717.59;105547;1254;69691;-60
2023/03/13 04:54:04;;;;;;;11.10;4.10;;;;;;;6.03;92.02;99711.11;105475;1255;69111;-60
2023/03/13 04:56:45;;;;;;;11.70;4.10;;;;;;;5.98;91.93;99707.09;105509;1256;74013;-60
2023/03/13 04:59:38;;;;;;;9.80;4.00;;;;;;;5.93;91.90;99702.36;105560;1254;83065;-60
2023/03/13 05:02:26;;;;;;;12.50;4.80;;;;;;;5.89;91.87;99701.09;105505;1251;72926;-60
2023/03/13 05:05:09;;;;;;;13.10;4.30;;;;;;;5.86;91.77;99701.00;105540;1252;69243;-60
2023/03/13 05:07:57;;;;;;;10.10;4.10;;;;;;;5.78;91.35;99698.61;105499;1254;69140;-60
2023/03/13 05:10:31;;;;;;;9.70;3.60;;;;;;;5.69;91.50;99701.48;105537;1254;75165;-60
2023/03/13 05:13:24;;;;;;;14.80;4.20;;;;;;;5.62;91.45;99695.09;105394;1258;83366;-60
2023/03/13 05:16:07;;;;;;;10.30;3.80;;;;;;;5.56;91.57;99693.86;105469;1256;73916;-59
2023/03/13 05:18:36;;;;;;;14.60;4.50;;;;;;;5.55;91.81;99689.91;105462;1254;69102;-60
2023/03/13 05:21:24;;;;;;;8.30;3.30;;;;;;;5.53;91.80;99682.88;105520;1254;69209;-60
2023/03/13 05:24:25;;;;;;;11.50;5.10;;;;;;;5.49;92.08;99680.91;105161;1254;74045;-60
2023/03/13 05:27:13;;;;;;;15.20;7.50;;;;;;;5.44;92.07;99675.30;105366;1255;83398;-59
2023/03/13 05:30:09;;;;;;;11.50;6.20;;;;;;;5.43;92.15;99666.87;105407;1251;73897;-60
2023/03/13 05:33:03;;;;;;;15.40;7.70;;;;;;;5.43;92.26;99667.38;105255;1251;69014;-59
2023/03/13 05:35:58;;;;;;;15.90;7.70;;;;;;;5.43;91.86;99663.23;105587;1251;69167;-59
2023/03/13 05:38:37;;;;;;;14.20;7.70;;;;;;;5.41;91.87;99660.67;105623;1251;74900;-59
2023/03/13 05:41:22;;;;;;;13.50;6.80;;;;;;;5.41;91.92;99660.34;105624;1256;83077;-60
2023/03/13 05:44:13;;;;;;;10.70;5.80;;;;;;;5.41;92.08;99657.03;105498;1251;73872;-57
2023/03/13 05:47:00;;;;;;;12.20;5.90;;;;;;;5.44;91.93;99657.14;105623;1251;69198;-59
2023/03/13 05:49:49;;;;;;;16.00;9.00;;;;;;;5.45;92.02;99653.45;105616;1256;69268;-59
2023/03/13 05:52:33;;;;;;;14.20;7.50;;;;;;;5.45;92.07;99650.35;105642;1256;74888;-59
2023/03/13 05:55:31;;;;;;;16.10;7.90;;;;;;;5.44;92.05;99642.93;105631;1254;84436;-59
2023/03/13 05:58:20;;;;;;;12.00;6.40;;;;;;;5.45;92.38;99637.88;105194;1254;73758;-59
2023/03/13 06:01:10;;;;;;;14.00;5.00;;;;;;;5.48;92.18;99636.40;105534;1254;69250;-59
2023/03/13 06:04:01;;;;;;;11.10;5.30;;;;;;;5.53;92.03;99634.87;105958;1254;69122;-59
2023/03/13 06:06:31;;;;;;;11.50;5.10;;;;;;;5.56;91.94;99629.59;105391;1258;75012;-59
2023/03/13 06:09:00;;;;;;;10.30;5.00;;;;;;;5.60;92.13;99625.64;105852;1254;83884;-59
2023/03/13 06:11:31;;;;;;;10.90;5.10;;;;;;;5.65;92.01;99624.64;105568;1256;73117;-59
2023/03/13 06:13:59;;;;;;;15.00;6.50;;;;;;;5.68;91.94;99625.27;105584;1254;69083;-59
2023/03/13 06:16:41;;;;;;;16.10;6.00;;;;;;;5.70;91.84;99619.47;105578;1256;69193;-59
2023/03/13 06:19:19;;;;;;;11.40;6.00;;;;;;;5.71;92.03;99620.64;105610;1254;75046;-59
2023/03/13 06:21:47;;;;;;;12.90;6.00;;;;;;;5.74;91.93;99625.08;105572;1251;83648;-59
2023/03/13 06:24:15;;;;;;;13.00;6.00;;;;;;;5.77;91.83;99624.98;105602;1256;71905;-59
2023/03/13 06:26:43;;;;;;;11.20;5.80;;;;;;;5.83;91.93;99623.92;105775;1256;69304;-61
2023/03/13 06:29:11;;;;;;;11.90;6.00;;;;;;;5.91;91.76;99619.72;105664;1256;69132;-62
2023/03/13 06:31:40;;;;;;;14.50;6.70;;;;;;;5.94;91.82;99615.30;105580;1254;73961;-63
2023/03/13 06:34:12;;;;;;;12.70;5.80;;;;;;;5.99;91.54;99609.63;105675;1256;82439;-61
2023/03/13 06:36:40;;;;;;;10.80;5.40;;;;;;;6.03;91.58;99604.80;105535;1255;71928;-62
2023/03/13 06:39:09;;;;;;;12.50;5.50;;;;;;;6.08;91.62;99600.85;105569;1257;69859;-61
2023/03/13 06:41:38;;;;;;;14.30;6.20;;;;;;;6.12;91.61;99603.33;105812;1251;69164;-61
2023/03/13 06:44:06;;;;;;;12.80;6.60;;;;;;;6.16;91.72;99604.39;105540;1256;73987;-61
2023/03/13 06:46:34;;;;;;;14.00;6.20;;;;;;;6.20;91.58;99603.05;105575;1254;82607;-61
2023/03/13 06:49:04;;;;;;;15.20;7.70;;;;;;;6.24;91.59;99602.57;105572;1254;73726;-60
2023/03/13 06:51:32;;;;;;;13.30;7.00;;;;;;;6.28;91.67;99599.50;105925;1256;69145;-60
2023/03/13 06:54:02;;;;;;;15.60;7.60;;;;;;;6.35;91.30;99602.94;105588;1254;69202;-60
2023/03/13 06:56:31;;;;;;;18.30;7.00;;;;;;;6.42;91.39;99599.22;105572;1256;74847;-60
2023/03/13 06:58:59;;;;;;;19.00;7.50;;;;;;;6.49;91.11;99595.69;105824;1254;83386;-60
2023/03/13 07:01:28;;;;;;;13.40;6.80;;;;;;;6.58;91.15;99599.05;105589;1256;73520;-60
2023/03/13 07:03:56;;;;;;;15.70;7.50;;;;;;;6.67;91.13;99589.70;105692;1257;69052;-60
2023/03/13 07:06:25;;;;;;;15.80;8.20;;;;;;;6.76;91.24;99594.60;105647;1255;69134;-60
2023/03/13 07:08:54;;;;;;;13.70;7.70;;;;;;;6.84;91.32;99592.25;106102;1253;74046;-60
2023/03/13 07:11:22;;;;;;;14.20;7.60;;;;;;;6.91;91.15;99586.97;105606;1251;83316;-60
2023/03/13 07:13:53;;;;;;;14.20;7.80;;;;;;;6.98;91.22;99576.67;105798;1251;72679;-60
2023/03/13 07:16:42;;;;;;;15.60;8.00;;;;;;;7.06;91.11;99570.65;105540;1253;69183;-60
2023/03/13 07:19:11;;;;;;;16.40;8.00;;;;;;;7.11;91.07;99569.25;105685;1255;69529;-60
2023/03/13 07:21:39;;;;;;;13.60;7.30;;;;;;;7.14;90.80;99568.09;105641;1254;74466;-60
2023/03/13 07:24:08;;;;;;;16.60;8.20;;;;;;;7.20;90.75;99566.30;105721;1251;83923;-60
2023/03/13 07:26:36;;;;;;;14.70;8.10;;;;;;;7.23;90.58;99562.36;105865;1251;73612;-60
2023/03/13 07:29:04;;;;;;;16.40;7.40;;;;;;;7.27;90.13;99564.66;106091;1251;69205;-59
2023/03/13 07:31:34;;;;;;;17.10;7.80;;;;;;;7.31;90.33;99562.77;105683;1256;69116;-60
2023/03/13 07:34:02;;;;;;;15.50;7.60;;;;;;;7.34;90.15;99557.95;105679;1256;74182;-60
2023/03/13 07:36:30;;;;;;;16.40;8.30;;;;;;;7.37;90.16;99550.20;105641;1251;83820;-59
2023/03/13 07:38:58;;;;;;;13.80;8.30;;;;;;;7.41;90.18;99548.84;105843;1251;73645;-59
2023/03/13 07:41:27;;;;;;;16.60;8.40;;;;;;;7.43;90.04;99549.12;105659;1254;69067;-58
2023/03/13 07:43:56;;;;;;;15.50;8.00;;;;;;;7.47;89.90;99552.29;105543;1257;69189;-57
2023/03/13 07:46:24;;;;;;;16.30;7.80;;;;;;;7.53;89.67;99552.40;105637;1255;75037;-59
2023/03/13 07:48:54;;;;;;;16.50;8.10;;;;;;;7.60;89.57;99550.22;105761;1251;82476;-58
2023/03/13 07:51:23;;;;;;;17.60;8.50;;;;;;;7.68;89.80;99543.83;106044;1255;73512;-59
2023/03/13 07:54:09;;;;;;;14.10;7.40;;;;;;;7.78;89.31;99538.89;105555;1256;69168;-59
2023/03/13 07:56:37;;;;;;;17.80;8.30;;;;;;;7.89;89.47;99536.55;105620;1254;69193;-57
2023/03/13 07:59:05;;;;;;;17.00;8.80;;;;;;;7.99;89.48;99528.67;105767;1256;74984;-57
2023/03/13 08:01:34;;;;;;;16.80;9.30;;;;;;;8.09;89.50;99522.18;105908;1256;82547;-57
2023/03/13 08:04:04;;;;;;;16.30;8.60;;;;;;;8.19;89.44;99516.53;105947;1251;73869;-59
2023/03/13 08:06:36;;;;;;;19.60;9.80;;;;;;;8.27;89.20;99512.71;105690;1251;69023;-59
2023/03/13 08:09:04;;;;;;;14.80;8.90;;;;;;;8.37;89.05;99507.45;105662;1251;69162;-62
2023/03/13 08:11:33;;;;;;;16.00;8.30;;;;;;;8.47;88.82;99504.77;105608;1251;74707;-62
2023/03/13 08:14:02;;;;;;;15.20;8.20;;;;;;;8.55;88.53;99502.89;105832;1255;83194;-66
2023/03/13 08:16:32;;;;;;;16.30;8.50;;;;;;;8.61;88.27;99487.80;105552;1255;73052;-65
2023/03/13 08:19:04;;;;;;;15.90;8.00;;;;;;;8.65;88.16;99491.30;105560;1255;69201;-63
2023/03/13 08:21:35;;;;;;;14.90;8.60;;;;;;;8.68;88.10;99488.56;105630;1255;69112;-61
2023/03/13 08:24:07;;;;;;;15.70;8.50;;;;;;;8.72;87.98;99490.13;105853;1256;74198;-61
2023/03/13 08:26:37;;;;;;;16.20;8.90;;;;;;;8.74;87.95;99488.47;105650;1251;83404;-61
2023/03/13 08:29:11;;;;;;;15.70;8.80;;;;;;;8.78;87.82;99484.10;105706;1256;72594;-61
2023/03/13 08:31:51;;;;;;;15.10;8.30;;;;;;;8.85;87.89;99469.50;105590;1255;69192;-62
2023/03/13 08:34:20;;;;;;;15.70;7.20;;;;;;;8.88;87.44;99450.20;105589;1256;69196;-62
2023/03/13 08:36:48;;;;;;;16.40;8.00;;;;;;;8.93;87.43;99444.27;105564;1256;74894;-62
2023/03/13 08:39:17;;;;;;;15.10;7.80;;;;;;;9.00;87.77;99445.14;105670;1251;83005;-62
2023/03/13 08:41:46;;;;;;;15.50;8.60;;;;;;;9.06;87.78;99440.14;105554;1256;72714;-62
2023/03/13 08:44:16;;;;;;;15.90;8.80;;;;;;;9.12;87.75;99436.74;105530;1256;112718;-63
2023/03/13 08:46:45;;;;;;;15.90;7.50;;;;;;;9.16;87.59;99436.02;105877;1254;69287;-63
2023/03/13 08:49:16;;;;;;;16.70;7.90;;;;;;;9.20;87.64;99429.06;105547;1255;74723;-62
2023/03/13 08:51:45;;;;;;;12.20;7.50;;;;;;;9.26;87.45;99421.63;105731;1255;83119;-62
2023/03/13 08:54:13;;;;;;;13.80;7.00;;;;;;;9.35;87.48;99413.02;105571;1254;72737;-63
2023/03/13 08:56:42;;;;;;;11.40;6.10;;;;;;;9.45;87.26;99407.80;105461;1255;69211;-62
2023/03/13 08:59:11;;;;;;;11.00;6.10;;;;;;;9.53;87.06;99406.36;105558;1256;69109;-62
2023/03/13 09:01:40;;;;;;;13.00;5.90;;;;;;;9.60;86.99;99398.35;105559;1253;73779;-61
2023/03/13 09:04:08;;;;;;;11.90;5.90;;;;;;;9.66;87.03;99390.39;105650;1254;82585;-62
2023/03/13 09:06:37;;;;;;;10.50;5.30;;;;;;;9.74;87.04;99386.20;105743;1253;73956;-62
2023/03/13 09:09:06;;;;;;;13.30;5.60;;;;;;;9.81;87.08;99382.83;105545;1256;69526;-62
2023/03/13 09:11:36;;;;;;;13.90;6.80;;;;;;;9.91;86.98;99377.46;105802;1254;69298;-61
2023/03/13 09:14:05;;;;;;;10.60;5.40;;;;;;;10.02;86.93;99371.14;105512;1253;75023;-63
2023/03/13 09:16:34;;;;;;;12.90;3.50;;;;;;;10.17;86.51;99364.60;105515;1256;83572;-61
2023/03/13 09:19:03;;;;;;;9.40;4.00;;;;;;;10.32;86.40;99361.95;105458;1254;72725;-62
2023/03/13 09:21:34;;;;;;;12.60;4.10;;;;;;;10.47;86.41;99360.27;105765;1254;69206;-62
2023/03/13 09:24:02;;;;;;;10.90;4.70;;;;;;;10.64;86.35;99355.55;105518;1257;69817;-61
2023/03/13 09:26:30;;;;;;;10.00;4.00;;;;;;;10.78;86.09;99346.72;105649;1256;74612;-61
2023/03/13 09:28:58;;;;;;;10.40;3.60;;;;;;;10.89;85.67;99337.58;105465;1256;83778;-62
2023/03/13 09:31:31;;;;;;;11.30;4.20;;;;;;;11.01;85.56;99330.98;105546;1256;74009;-61
2023/03/13 09:34:00;;;;;;;11.10;4.30;;;;;;;11.14;84.99;99325.34;105721;1255;69262;-54
2023/03/13 09:36:28;;;;;;;9.40;3.90;;;;;;;11.24;84.62;99330.05;105670;1256;69518;-59
2023/03/13 09:38:58;;;;;;;12.00;4.20;;;;;;;11.31;84.44;99330.84;105496;1256;73316;-60
2023/03/13 09:41:39;;;;;;;9.80;3.50;;;;;;;11.34;83.88;99324.91;105506;1256;83384;-59
2023/03/13 09:44:16;;;;;;;12.10;4.00;;;;;;;11.32;83.69;99324.33;105390;1259;72917;-59
2023/03/13 09:46:47;;;;;;;11.40;3.80;;;;;;;11.28;83.34;99319.64;105497;1256;69126;-60
2023/03/13 09:49:22;;;;;;;10.70;3.50;;;;;;;11.25;82.85;99311.08;105547;1254;69161;-60
2023/03/13 09:52:01;;;;;;;7.90;3.50;;;;;;;11.26;82.95;99309.98;105670;1256;75074;-59
2023/03/13 09:54:41;;;;;;;8.50;3.70;;;;;;;11.22;82.86;99310.36;105535;1253;83407;-60
2023/03/13 09:57:21;;;;;;;9.10;3.40;;;;;;;11.20;82.66;99306.86;105529;1256;73172;-60
2023/03/13 09:59:52;;;;;;;11.30;4.00;;;;;;;11.21;82.79;99302.56;105506;1256;69160;-60
2023/03/13 10:02:34;;;;;;;12.00;3.60;;;;;;;11.23;82.83;99303.30;105471;1253;69186;-62
2023/03/13 10:05:21;;;;;;;6.90;3.30;;;;;;;11.23;82.66;99303.66;105537;1256;74221;-63
2023/03/13 10:07:50;;;;;;;10.50;3.90;;;;;;;11.14;82.80;99299.27;105484;1254;83454;-61
2023/03/13 10:10:25;;;;;;;10.80;3.90;;;;;;;11.06;83.00;99299.58;105530;1256;73759;-62
2023/03/13 10:12:58;;;;;;;12.90;3.80;;;;;;;11.00;83.20;99296.77;105546;1252;69061;-60
2023/03/13 10:15:34;;;;;;;13.90;6.30;;;;;;;10.87;83.18;99293.25;105528;1254;69157;-64
2023/03/13 10:18:24;;;;;;;18.60;7.90;;;;;;;10.77;83.50;99290.34;105681;1254;75108;-64
2023/03/13 10:20:55;;;;;;;;;;;;;;;10.68;83.93;99288.23;105562;1261;83833;-64
2023/03/13 10:23:42;;;;;;;10.00;4.50;;;;;;;10.59;84.22;99284.70;105532;1256;73906;-63
2023/03/13 10:26:24;;;;;;;7.10;2.90;;;;;;;10.52;84.66;99288.80;105472;1254;69182;-63
2023/03/13 10:28:58;;;;;;;10.10;4.00;;;;;;;10.43;84.94;99287.33;105485;1254;69128;-63
2023/03/13 10:31:31;;;;;;;13.50;3.40;;;;;;;10.34;85.26;99292.70;105496;1256;73730;-62
2023/03/13 10:34:12;;;;;;;11.40;3.00;;;;;;;10.23;85.51;99293.60;105554;1254;83844;-61
2023/03/13 10:36:46;;;;;;;8.70;2.90;;;;;;;10.14;85.68;99299.83;105512;1254;73807;-63
2023/03/13 10:39:17;;;;;;;12.30;3.30;;;;;;;10.07;85.56;99299.68;105612;1256;69106;-62
2023/03/13 10:41:47;;;;;;;9.10;3.00;;;;;;;10.01;85.91;99295.11;105555;1254;69061;-61
2023/03/13 10:44:19;;;;;;;;;;;;;;;9.96;86.26;99296.23;105577;1256;74901;-62
2023/03/13 10:46:49;;;;;;;10.60;3.40;;;;;;;9.91;86.50;99294.74;105514;1254;82356;-62
2023/03/13 10:49:21;;;;;;;9.20;2.90;;;;;;;9.87;86.59;99297.79;105801;1254;73860;-61
2023/03/13 10:52:00;;;;;;;10.40;3.20;;;;;;;9.83;86.91;99296.71;105540;1254;69201;-61
2023/03/13 10:54:29;;;;;;;11.30;3.60;;;;;;;9.82;87.14;99290.86;105560;1256;69211;-61
2023/03/13 10:57:19;;;;;;;10.90;4.10;;;;;;;9.86;87.68;99288.41;105616;1254;73936;-60
2023/03/13 10:59:49;;;;;;;10.70;3.10;;;;;;;9.91;87.60;99290.38;105485;1254;82871;-61
2023/03/13 11:02:26;;;;;;;;;;;;;;;9.96;87.67;99290.30;105720;1257;72669;-60
2023/03/13 11:04:56;;;;;;;8.80;2.90;;;;;;;9.98;87.63;99291.59;105776;1254;69199;-60
2023/03/13 11:07:28;;;;;;;8.90;3.40;;;;;;;9.99;87.76;99285.25;105596;1259;69295;-61
2023/03/13 11:10:23;;;;;;;9.70;3.30;;;;;;;10.00;87.96;99279.27;105541;1256;73976;-60
2023/03/13 11:12:53;;;;;;;10.60;3.00;;;;;;;10.06;87.99;99273.04;105528;1254;83357;-63
2023/03/13 11:15:23;;;;;;;8.70;3.50;;;;;;;10.10;88.18;99277.17;105641;1253;72402;-63
2023/03/13 11:18:02;;;;;;;9.50;3.10;;;;;;;10.10;88.25;99267.27;105508;1253;69170;-63
2023/03/13 11:20:36;;;;;;;9.40;3.90;;;;;;;10.13;88.54;99258.52;105444;1259;69196;-63
2023/03/13 11:23:12;;;;;;;6.50;2.80;;;;;;;10.14;88.17;99256.71;105460;1259;74456;-63
2023/03/13 11:26:10;;;;;;;10.00;3.00;;;;;;;10.14;88.45;99254.08;105671;1256;83722;-63
2023/03/13 11:28:58;;;;;;;9.80;2.60;;;;;;;10.16;88.67;99247.88;105512;1256;74097;-61
2023/03/13 11:31:39;;;;;;;9.50;3.10;;;;;;;10.16;88.87;99240.56;105401;1254;69259;-63
2023/03/13 11:34:18;;;;;;;8.70;2.60;;;;;;;10.15;88.85;99234.66;105525;1256;69151;-64
2023/03/13 11:36:58;;;;;;;7.20;2.60;;;;;;;10.14;89.03;99225.65;105506;1259;74068;-61
2023/03/13 11:39:44;;;;;;;10.60;3.80;;;;;;;10.12;89.29;99231.52;105502;1256;83266;-63
2023/03/13 11:42:28;;;;;;;8.20;3.30;;;;;;;10.12;89.32;99231.90;105541;1254;73432;-64
2023/03/13 11:45:23;;;;;;;7.40;2.80;;;;;;;10.08;89.23;99229.31;105507;1259;69146;-64
2023/03/13 11:48:19;;;;;;;6.90;2.70;;;;;;;10.08;89.28;99231.55;105335;1257;69292;-64
2023/03/13 11:50:59;;;;;;;8.60;3.10;;;;;;;10.10;89.33;99229.34;105941;1253;74066;-63
2023/03/13 11:53:55;;;;;;;7.40;2.70;;;;;;;10.10;89.26;99231.13;105463;1259;84011;-63
2023/03/13 11:56:37;;;;;;;10.10;3.10;;;;;;;10.06;89.20;99226.05;105250;1257;73917;-63
2023/03/13 11:59:21;;;;;;;8.60;3.40;;;;;;;10.05;89.29;99216.52;105735;1253;69021;-63